Makoua Airport


Codes: FCOM/MKJ
Name: Makoua Airport
City: Makoua
Country: Congo [Republic]
Elevation: 1293 ft.

Photos at Makoua Airport


   Photos courtesy of SpottingLog. You can add your own sightings and photos by signing up for a free trial today.



No photos found.

Weather at Makoua Airport


Time (UTC)DescriptionTempratureWindCloud coverageVisibilityPressureHumidity
16-Jun-2024 00:00Light Rain22°C2 mph, W70%10000m1011hPa94%
16-Jun-2024 03:00Light Rain22°C2 mph, W78%10000m1011hPa95%
16-Jun-2024 06:00Overcast Clouds23°C2 mph, W86%10000m1012hPa92%
16-Jun-2024 09:00Scattered Clouds30°C4 mph, W26%10000m1012hPa57%
16-Jun-2024 12:00Light Rain29°C7 mph, NW44%10000m1010hPa63%
16-Jun-2024 15:00Moderate Rain25°C4 mph, SW95%10000m1009hPa86%
16-Jun-2024 18:00Light Rain23°C4 mph, SW87%10000m1011hPa91%
16-Jun-2024 21:00Overcast Clouds23°C4 mph, N100%10000m1012hPa94%
17-Jun-2024 00:00Overcast Clouds22°C4 mph, N100%10000m1012hPa95%
17-Jun-2024 03:00Overcast Clouds22°C2 mph, NW100%10000m1012hPa94%
17-Jun-2024 06:00Overcast Clouds22°C2 mph, NW100%10000m1014hPa93%
17-Jun-2024 09:00Overcast Clouds28°C4 mph, NW90%10000m1014hPa63%
17-Jun-2024 12:00Broken Clouds32°C4 mph, NW76%10000m1011hPa48%
17-Jun-2024 15:00Broken Clouds29°C4 mph, N75%10000m1009hPa60%
17-Jun-2024 18:00Light Rain24°C2 mph, S80%10000m1012hPa87%
17-Jun-2024 21:00Light Rain23°C4 mph, NW67%10000m1013hPa92%
18-Jun-2024 00:00Scattered Clouds22°C2 mph, NW43%10000m1012hPa93%
18-Jun-2024 03:00Few Clouds21°C2 mph, W13%10000m1011hPa94%
18-Jun-2024 06:00Few Clouds22°C2 mph, W12%10000m1013hPa88%
18-Jun-2024 09:00Scattered Clouds29°C4 mph, W30%10000m1014hPa57%
18-Jun-2024 12:00Scattered Clouds34°C2 mph, W31%10000m1011hPa44%
18-Jun-2024 15:00Light Rain31°C2 mph, SE70%10000m1009hPa50%
18-Jun-2024 18:00Broken Clouds27°C2 mph, SE57%10000m1010hPa68%
18-Jun-2024 21:00Overcast Clouds26°C2 mph, SW89%10000m1011hPa73%
19-Jun-2024 00:00Light Rain23°C2 mph, W64%10000m1011hPa85%
19-Jun-2024 03:00Scattered Clouds23°C2 mph, W35%10000m1010hPa87%
19-Jun-2024 06:00Few Clouds23°C4 mph, W24%10000m1011hPa86%
19-Jun-2024 09:00Clear Sky31°C4 mph, SW2%10000m1012hPa54%
19-Jun-2024 12:00Clear Sky35°C2 mph, SE8%10000m1008hPa39%
19-Jun-2024 15:00Broken Clouds30°C2 mph, NE78%10000m1008hPa57%
19-Jun-2024 18:00Broken Clouds27°C2 mph, SW82%10000m1009hPa66%
19-Jun-2024 21:00Broken Clouds25°C2 mph, W57%10000m1012hPa74%
20-Jun-2024 00:00Broken Clouds24°C2 mph, SW75%10000m1010hPa80%
20-Jun-2024 03:00Light Rain23°C2 mph, W100%10000m1010hPa87%
20-Jun-2024 06:00Light Rain24°C2 mph, W98%10000m1012hPa84%
20-Jun-2024 09:00Broken Clouds31°C4 mph, W63%10000m1011hPa56%
20-Jun-2024 12:00Broken Clouds34°C2 mph, SW77%10000m1008hPa43%
20-Jun-2024 15:00Overcast Clouds30°C2 mph, S99%10000m1007hPa61%
20-Jun-2024 18:00Light Rain25°C4 mph, NE98%10000m1009hPa81%
20-Jun-2024 21:00Light Rain24°C2 mph, SW81%10000m1011hPa82%